Date,TemperatureHighF,TemperatureAvgF,TemperatureLowF,DewpointHighF,DewpointAvgF,DewpointLowF,HumidityHigh,HumidityAvg,HumidityLow,PressureMaxIn,PressureMinIn,WindSpeedMaxMPH,WindSpeedAvgMPH,GustSpeedMaxMPH,PrecipitationSumIn
2013-10-1,78,63,54,64,58,52,97,85,55,30.09,30.00,5,0,10,0.00
2013-10-2,80,64,52,67,59,51,98,86,59,30.10,30.04,4,0,10,0.00
2013-10-3,78,65,54,68,61,54,98,88,67,30.13,30.04,5,0,9,0.00
2013-10-4,80,69,61,69,65,60,98,89,67,30.11,30.03,6,0,11,0.00
2013-10-5,81,69,61,70,66,61,98,90,69,30.11,30.00,5,0,8,0.00
2013-10-6,86,73,64,72,65,61,98,80,49,30.00,29.80,7,1,13,0.01
2013-10-7,72,58,43,62,51,42,95,80,62,30.12,29.71,5,2,15,0.38
2013-10-8,67,50,37,51,44,36,97,81,44,30.31,30.12,5,0,7,0.00
2013-10-9,67,52,41,48,43,39,97,75,37,30.35,30.25,4,0,7,0.00
2013-10-10,65,54,43,52,45,41,90,74,49,30.25,30.11,4,0,7,0.00
2013-10-11,60,54,51,56,52,47,96,90,81,30.11,30.06,4,0,6,0.23
2013-10-12,75,60,51,62,56,50,97,86,59,30.19,30.06,5,0,9,0.01
2013-10-13,67,60,54,59,56,52,96,90,77,30.28,30.17,4,0,9,0.19
2013-10-14,62,59,54,59,57,53,97,94,88,30.30,30.24,1,0,3,0.01
2013-10-15,70,60,50,60,55,49,98,85,66,30.23,30.00,5,0,7,0.00
2013-10-16,65,58,53,61,56,51,96,93,87,30.00,29.87,4,0,9,0.20
2013-10-17,63,56,50,61,54,48,97,93,79,29.91,29.63,10,1,19,0.66
2013-10-18,61,50,39,48,44,37,95,81,51,30.01,29.87,6,1,12,0.03
2013-10-19,55,44,34,49,41,33,98,89,74,29.98,29.75,11,1,12,0.13
2013-10-20,57,44,35,42,38,34,96,82,51,30.05,29.92,10,1,12,0.00
2013-10-21,66,47,32,46,37,31,97,74,34,30.07,29.85,7,1,12,0.00
2013-10-22,52,45,36,47,38,30,93,78,47,29.94,29.82,5,1,11,0.13
2013-10-23,42,38,35,39,36,33,95,91,87,29.90,29.73,4,0,13,0.10
2013-10-24,44,37,29,35,32,27,95,83,58,30.11,29.89,5,1,12,0.00
2013-10-25,48,36,28,36,31,27,95,82,51,30.29,30.11,5,1,14,0.01
2013-10-26,49,39,27,33,29,26,96,70,45,30.22,29.88,9,2,18,0.00
2013-10-27,50,40,29,38,32,27,95,75,50,30.10,29.94,5,1,10,0.00
2013-10-28,60,40,26,40,32,24,96,78,38,30.28,30.09,4,0,8,0.00
2013-10-29,60,44,35,41,37,33,94,78,46,30.37,30.26,3,0,5,0.00
2013-10-30,68,51,38,50,44,36,94,79,52,30.25,30.11,6,0,8,0.00
2013-10-31,68,60,51,60,56,49,97,87,69,30.11,29.50,12,1,13,0.23